Time;durP1;ratioP1;P1;durP2;ratioP2;P2;SDS_P1;SDS_P2;PMS_P1;PMS_P2;Temp;Humidity;BMP_temperature;BMP_pressure;BME280_temperature;BME280_humidity;BME280_pressure;Samples;Min_cycle;Max_cycle;Signal;HPM_P1;HPM_P2
2021/12/25 00:02:17;;;;;;;0.33;0.33;;;;;;;;;;5025902;28;20570;-64
2021/12/25 00:04:43;;;;;;;0.30;0.30;;;;;;;;;;5025752;28;20200;-66
2021/12/25 00:07:10;;;;;;;0.30;0.30;;;;;;;;;;5025961;28;20357;-65
2021/12/25 00:09:36;;;;;;;0.30;0.30;;;;;;;;;;5025627;28;20208;-66
2021/12/25 00:12:02;;;;;;;0.30;0.30;;;;;;;;;;5014488;28;20498;-67
2021/12/25 00:14:30;;;;;;;0.37;0.37;;;;;;;;;;5006145;28;20232;-69
2021/12/25 00:16:58;;;;;;;0.30;0.30;;;;;;;;;;5005846;28;20208;-68
2021/12/25 00:19:24;;;;;;;0.30;0.30;;;;;;;;;;5006103;28;20226;-66
2021/12/25 00:21:50;;;;;;;0.33;0.33;;;;;;;;;;5006227;28;20504;-67
2021/12/25 00:24:17;;;;;;;0.40;0.40;;;;;;;;;;5006178;28;20258;-67
2021/12/25 00:26:51;;;;;;;0.30;0.30;;;;;;;;;;5014808;28;20244;-66
2021/12/25 00:32:33;;;;;;;0.30;0.30;;;;;;;;;;4975755;28;20219;-66
2021/12/25 00:34:59;;;;;;;0.30;0.30;;;;;;;;;;5007471;28;20219;-66
2021/12/25 00:37:26;;;;;;;0.40;0.40;;;;;;;;;;5005762;28;20209;-66
2021/12/25 00:39:54;;;;;;;0.30;0.30;;;;;;;;;;5005518;28;20481;-66
2021/12/25 00:42:22;;;;;;;0.30;0.30;;;;;;;;;;5015987;28;20208;-65
2021/12/25 00:44:48;;;;;;;0.30;0.30;;;;;;;;;;5014329;28;20250;-65
2021/12/25 00:47:16;;;;;;;0.30;0.30;;;;;;;;;;5005538;28;20213;-64
2021/12/25 00:49:42;;;;;;;0.30;0.30;;;;;;;;;;5004892;28;20212;-65
2021/12/25 00:52:08;;;;;;;0.30;0.30;;;;;;;;;;5005464;28;20511;-65
2021/12/25 00:54:35;;;;;;;0.30;0.30;;;;;;;;;;5010835;28;20537;-66
2021/12/25 00:57:02;;;;;;;0.30;0.30;;;;;;;;;;5018810;28;20209;-66
2021/12/25 00:59:28;;;;;;;0.30;0.30;;;;;;;;;;5017633;28;20236;-65
2021/12/25 01:01:54;;;;;;;0.30;0.30;;;;;;;;;;5022734;28;20279;-65
2021/12/25 01:04:22;;;;;;;0.30;0.30;;;;;;;;;;5018369;28;20208;-65
2021/12/25 01:06:48;;;;;;;0.30;0.30;;;;;;;;;;5004781;28;20210;-65
2021/12/25 01:09:14;;;;;;;0.30;0.30;;;;;;;;;;5019359;28;20353;-65
2021/12/25 01:11:43;;;;;;;0.30;0.30;;;;;;;;;;5020101;28;20204;-65
2021/12/25 01:14:18;;;;;;;0.30;0.30;;;;;;;;;;5013277;28;20204;-66
2021/12/25 01:17:10;;;;;;;0.37;0.37;;;;;;;;;;5014382;28;20507;-65
2021/12/25 01:19:54;;;;;;;0.40;0.40;;;;;;;;;;5009993;28;20217;-65
2021/12/25 01:30:37;;;;;;;0.30;0.30;;;;;;;;;;5008064;28;20501;-65
2021/12/25 01:33:27;;;;;;;0.30;0.30;;;;;;;;;;5024054;28;20263;-65
2021/12/25 01:36:27;;;;;;;0.33;0.33;;;;;;;;;;5024264;28;20511;-65
2021/12/25 01:39:05;;;;;;;0.30;0.30;;;;;;;;;;5023854;28;20250;-66
2021/12/25 01:41:58;;;;;;;0.30;0.30;;;;;;;;;;5023948;28;20494;-65
2021/12/25 01:49:52;;;;;;;0.30;0.30;;;;;;;;;;5023883;28;20222;-66
2021/12/25 01:52:26;;;;;;;0.30;0.30;;;;;;;;;;5023820;28;20193;-65
2021/12/25 01:54:52;;;;;;;0.40;0.40;;;;;;;;;;5023746;28;20196;-65
2021/12/25 01:57:18;;;;;;;0.30;0.30;;;;;;;;;;5024054;28;20234;-65
2021/12/25 01:59:44;;;;;;;0.30;0.30;;;;;;;;;;5023616;28;20273;-66
2021/12/25 02:02:11;;;;;;;0.30;0.30;;;;;;;;;;5017378;28;20355;-66
2021/12/25 02:04:37;;;;;;;0.30;0.30;;;;;;;;;;5023716;28;20214;-65
2021/12/25 02:07:04;;;;;;;0.30;0.30;;;;;;;;;;5023412;28;20231;-65
2021/12/25 02:09:31;;;;;;;0.40;0.40;;;;;;;;;;5023582;28;20499;-65
2021/12/25 02:11:57;;;;;;;0.30;0.30;;;;;;;;;;5023176;28;20253;-65
2021/12/25 02:14:24;;;;;;;0.30;0.30;;;;;;;;;;5022359;28;20234;-65
2021/12/25 02:16:55;;;;;;;0.30;0.30;;;;;;;;;;5023531;28;20239;-64
2021/12/25 02:19:33;;;;;;;0.30;0.30;;;;;;;;;;5023194;28;20225;-65
2021/12/25 02:22:02;;;;;;;0.40;0.40;;;;;;;;;;5010073;28;20250;-66
2021/12/25 02:24:29;;;;;;;0.40;0.40;;;;;;;;;;5003761;28;20285;-65
2021/12/25 02:26:55;;;;;;;0.30;0.30;;;;;;;;;;5010088;28;20209;-66
2021/12/25 02:29:21;;;;;;;0.30;0.30;;;;;;;;;;5042865;28;20493;-66
2021/12/25 02:31:47;;;;;;;0.30;0.30;;;;;;;;;;5042811;28;20204;-66
2021/12/25 02:34:15;;;;;;;0.30;0.30;;;;;;;;;;5043128;28;20205;-66
2021/12/25 02:36:42;;;;;;;0.30;0.30;;;;;;;;;;5043043;28;20207;-66
2021/12/25 02:39:09;;;;;;;0.30;0.30;;;;;;;;;;5042914;28;20546;-66
2021/12/25 02:41:35;;;;;;;0.30;0.30;;;;;;;;;;5042969;28;20251;-66
2021/12/25 02:44:02;;;;;;;0.40;0.40;;;;;;;;;;5042912;28;20502;-65
2021/12/25 02:46:28;;;;;;;0.30;0.30;;;;;;;;;;5042553;28;20204;-65
2021/12/25 02:48:57;;;;;;;0.30;0.30;;;;;;;;;;5042640;28;20266;-66
2021/12/25 02:51:23;;;;;;;0.30;0.30;;;;;;;;;;5042506;28;20238;-65
2021/12/25 02:53:50;;;;;;;0.30;0.30;;;;;;;;;;5043416;28;20208;-65
2021/12/25 02:56:17;;;;;;;0.30;0.30;;;;;;;;;;5042635;28;20250;-64
2021/12/25 02:58:43;;;;;;;0.30;0.30;;;;;;;;;;5042506;28;20199;-65
2021/12/25 03:01:11;;;;;;;0.30;0.30;;;;;;;;;;5042358;28;20226;-66
2021/12/25 03:03:38;;;;;;;0.40;0.40;;;;;;;;;;5042535;28;20249;-67
2021/12/25 03:06:05;;;;;;;0.40;0.40;;;;;;;;;;5042734;28;20206;-66
2021/12/25 03:08:31;;;;;;;0.40;0.40;;;;;;;;;;5042462;28;20208;-66
2021/12/25 03:10:57;;;;;;;0.30;0.30;;;;;;;;;;5038445;28;20205;-65
2021/12/25 03:13:35;;;;;;;0.30;0.30;;;;;;;;;;5023056;28;20271;-65
2021/12/25 03:16:02;;;;;;;0.40;0.40;;;;;;;;;;5023035;28;20508;-66
2021/12/25 03:18:31;;;;;;;0.30;0.30;;;;;;;;;;5022990;28;20322;-65
2021/12/25 03:20:59;;;;;;;0.30;0.30;;;;;;;;;;5022928;28;20227;-66
2021/12/25 03:23:26;;;;;;;0.30;0.30;;;;;;;;;;5022629;28;20213;-66
2021/12/25 03:25:53;;;;;;;0.40;0.40;;;;;;;;;;5024998;28;20249;-64
2021/12/25 03:28:22;;;;;;;0.40;0.40;;;;;;;;;;5040987;28;20245;-65
2021/12/25 03:30:49;;;;;;;0.40;0.40;;;;;;;;;;5046334;28;20210;-65
2021/12/25 03:33:17;;;;;;;0.30;0.30;;;;;;;;;;5046262;28;20224;-66
2021/12/25 03:35:44;;;;;;;0.30;0.30;;;;;;;;;;5046329;28;20230;-66
2021/12/25 03:38:14;;;;;;;0.30;0.30;;;;;;;;;;5045892;28;20215;-65
2021/12/25 03:40:41;;;;;;;0.30;0.30;;;;;;;;;;5046125;28;20215;-65
2021/12/25 03:43:07;;;;;;;0.33;0.33;;;;;;;;;;5046152;28;20213;-65
2021/12/25 03:45:34;;;;;;;0.30;0.30;;;;;;;;;;5045928;28;20207;-65
2021/12/25 03:48:08;;;;;;;0.33;0.33;;;;;;;;;;5045939;28;20206;-65
2021/12/25 03:53:36;;;;;;;0.30;0.30;;;;;;;;;;5045853;28;20192;-65
2021/12/25 03:58:47;;;;;;;0.30;0.30;;;;;;;;;;5045639;28;20449;-67
2021/12/25 04:01:26;;;;;;;0.30;0.30;;;;;;;;;;5032992;28;20227;-65
2021/12/25 04:04:05;;;;;;;0.40;0.40;;;;;;;;;;5025919;28;20230;-65
2021/12/25 04:06:32;;;;;;;0.33;0.33;;;;;;;;;;5025908;28;20272;-67
2021/12/25 04:08:59;;;;;;;0.30;0.30;;;;;;;;;;5025719;28;20205;-65
2021/12/25 04:11:28;;;;;;;0.30;0.30;;;;;;;;;;5025473;28;20204;-66
2021/12/25 04:13:55;;;;;;;0.40;0.40;;;;;;;;;;5025467;28;20206;-64
2021/12/25 04:16:21;;;;;;;0.30;0.30;;;;;;;;;;5025362;28;20208;-63
2021/12/25 04:18:47;;;;;;;0.30;0.30;;;;;;;;;;5025573;28;20509;-66
2021/12/25 04:21:15;;;;;;;0.40;0.40;;;;;;;;;;5025494;28;20250;-64
2021/12/25 04:23:43;;;;;;;0.30;0.30;;;;;;;;;;5025709;28;20253;-67
2021/12/25 04:26:09;;;;;;;0.30;0.30;;;;;;;;;;5025399;28;20234;-65
2021/12/25 04:28:40;;;;;;;0.30;0.30;;;;;;;;;;5042291;28;20233;-65
2021/12/25 04:31:25;;;;;;;0.40;0.40;;;;;;;;;;5045236;28;20198;-65
2021/12/25 04:48:28;;;;;;;0.33;0.33;;;;;;;;;;5044862;28;20226;-66
2021/12/25 05:02:08;;;;;;;0.40;0.40;;;;;;;;;;4944917;29;20274;-65
2021/12/25 05:04:40;;;;;;;0.40;0.40;;;;;;;;;;4945058;29;20221;-64
2021/12/25 05:07:06;;;;;;;0.30;0.30;;;;;;;;;;4984786;28;20208;-65
2021/12/25 05:09:33;;;;;;;0.30;0.30;;;;;;;;;;5024714;28;20207;-65
2021/12/25 05:12:00;;;;;;;0.30;0.30;;;;;;;;;;5024370;28;20229;-65
2021/12/25 05:14:26;;;;;;;0.40;0.40;;;;;;;;;;5024609;28;20250;-65
2021/12/25 05:16:52;;;;;;;0.40;0.40;;;;;;;;;;5024458;28;20206;-66
2021/12/25 05:19:18;;;;;;;0.40;0.40;;;;;;;;;;5023960;28;20215;-65
2021/12/25 05:21:45;;;;;;;0.40;0.40;;;;;;;;;;5024180;28;20207;-65
2021/12/25 05:24:11;;;;;;;0.40;0.40;;;;;;;;;;5024519;28;20506;-65
2021/12/25 05:26:39;;;;;;;0.30;0.30;;;;;;;;;;5024154;28;20206;-67
2021/12/25 05:29:06;;;;;;;0.40;0.40;;;;;;;;;;5024127;28;20215;-65
2021/12/25 05:31:33;;;;;;;0.40;0.40;;;;;;;;;;5023960;28;20204;-66
2021/12/25 05:33:59;;;;;;;0.30;0.30;;;;;;;;;;5024240;28;20265;-65
2021/12/25 05:36:28;;;;;;;0.40;0.40;;;;;;;;;;5024269;28;20211;-66
2021/12/25 05:38:56;;;;;;;0.40;0.40;;;;;;;;;;5023860;28;20234;-67
2021/12/25 05:41:23;;;;;;;0.30;0.30;;;;;;;;;;5023596;28;20278;-66
2021/12/25 05:43:50;;;;;;;0.40;0.40;;;;;;;;;;5024116;28;20493;-65
2021/12/25 05:46:16;;;;;;;0.30;0.30;;;;;;;;;;5024000;28;20211;-66
2021/12/25 05:48:43;;;;;;;0.40;0.40;;;;;;;;;;5023499;28;20201;-66
2021/12/25 05:51:09;;;;;;;0.40;0.40;;;;;;;;;;5023383;28;20246;-65
2021/12/25 05:53:35;;;;;;;0.30;0.30;;;;;;;;;;5023518;28;20208;-66
2021/12/25 05:56:01;;;;;;;0.37;0.37;;;;;;;;;;5023915;28;20248;-63
2021/12/25 05:58:28;;;;;;;0.40;0.40;;;;;;;;;;5023371;28;20402;-65
2021/12/25 06:00:55;;;;;;;0.40;0.40;;;;;;;;;;5023410;28;20538;-65
2021/12/25 06:03:21;;;;;;;0.40;0.40;;;;;;;;;;5023727;28;20207;-65
2021/12/25 06:05:48;;;;;;;0.40;0.40;;;;;;;;;;5023736;28;20266;-66
2021/12/25 06:08:14;;;;;;;0.40;0.40;;;;;;;;;;5023673;28;20279;-66
2021/12/25 06:10:41;;;;;;;0.40;0.40;;;;;;;;;;5023654;28;20504;-65
2021/12/25 06:13:10;;;;;;;0.40;0.40;;;;;;;;;;5023628;28;20207;-65
2021/12/25 06:15:36;;;;;;;0.30;0.30;;;;;;;;;;5023489;28;20212;-65
2021/12/25 06:18:04;;;;;;;0.40;0.40;;;;;;;;;;5023584;28;20233;-65
2021/12/25 06:20:30;;;;;;;0.73;0.73;;;;;;;;;;5024077;28;20250;-64
2021/12/25 06:22:56;;;;;;;0.40;0.40;;;;;;;;;;5023315;28;20560;-65
2021/12/25 06:25:22;;;;;;;0.40;0.40;;;;;;;;;;5023100;28;20207;-66
2021/12/25 06:27:48;;;;;;;0.40;0.40;;;;;;;;;;5033721;28;20210;-64
2021/12/25 06:30:15;;;;;;;0.40;0.40;;;;;;;;;;5028887;28;20223;-65
2021/12/25 06:32:41;;;;;;;0.40;0.40;;;;;;;;;;5022904;28;20206;-65
2021/12/25 06:35:09;;;;;;;0.40;0.40;;;;;;;;;;5023569;28;20407;-65
2021/12/25 06:37:36;;;;;;;0.40;0.40;;;;;;;;;;5023276;28;20272;-65
2021/12/25 06:40:02;;;;;;;0.40;0.40;;;;;;;;;;5022959;28;20228;-65
2021/12/25 06:42:28;;;;;;;0.40;0.40;;;;;;;;;;5023170;28;20263;-65
2021/12/25 06:44:56;;;;;;;0.40;0.40;;;;;;;;;;5023176;28;20206;-64
2021/12/25 06:47:22;;;;;;;0.30;0.30;;;;;;;;;;5023273;28;20215;-65
2021/12/25 06:49:48;;;;;;;0.40;0.40;;;;;;;;;;5022577;28;20214;-65
2021/12/25 06:52:16;;;;;;;0.30;0.30;;;;;;;;;;5023063;28;20381;-65
2021/12/25 06:54:42;;;;;;;0.40;0.40;;;;;;;;;;5022821;28;20259;-66
2021/12/25 06:57:09;;;;;;;0.40;0.40;;;;;;;;;;5022990;28;20207;-65
2021/12/25 06:59:35;;;;;;;0.30;0.30;;;;;;;;;;5022884;28;20213;-64
2021/12/25 07:02:01;;;;;;;0.33;0.33;;;;;;;;;;5026585;28;20222;-65
2021/12/25 07:04:28;;;;;;;0.40;0.40;;;;;;;;;;5026999;28;20250;-65
2021/12/25 07:06:54;;;;;;;0.30;0.30;;;;;;;;;;5026989;28;20349;-66
2021/12/25 07:09:21;;;;;;;0.40;0.40;;;;;;;;;;5027016;28;20266;-63
2021/12/25 07:11:47;;;;;;;0.40;0.40;;;;;;;;;;5026788;28;20199;-65
2021/12/25 07:14:14;;;;;;;0.30;0.30;;;;;;;;;;5026820;28;20215;-65
2021/12/25 07:16:41;;;;;;;0.30;0.30;;;;;;;;;;5026943;28;20211;-64
2021/12/25 07:19:07;;;;;;;0.30;0.30;;;;;;;;;;5026926;28;20208;-64
2021/12/25 07:21:33;;;;;;;0.30;0.30;;;;;;;;;;5026402;28;20250;-65
2021/12/25 07:24:00;;;;;;;0.40;0.40;;;;;;;;;;5026327;28;20234;-65
2021/12/25 07:26:29;;;;;;;0.40;0.40;;;;;;;;;;5026464;28;20250;-68
2021/12/25 07:28:55;;;;;;;0.40;0.40;;;;;;;;;;5026609;28;20207;-67
2021/12/25 07:31:21;;;;;;;0.30;0.30;;;;;;;;;;5026302;28;20204;-64
2021/12/25 07:33:47;;;;;;;0.30;0.30;;;;;;;;;;5026439;28;20270;-63
2021/12/25 07:36:14;;;;;;;0.40;0.40;;;;;;;;;;5026428;28;20437;-65
2021/12/25 07:38:40;;;;;;;0.40;0.40;;;;;;;;;;5026548;28;20212;-65
2021/12/25 07:41:07;;;;;;;0.40;0.40;;;;;;;;;;5026372;28;20284;-64
2021/12/25 07:43:35;;;;;;;0.40;0.40;;;;;;;;;;5026117;28;20207;-64
2021/12/25 07:46:01;;;;;;;0.40;0.40;;;;;;;;;;5025911;28;20234;-65
2021/12/25 07:48:32;;;;;;;0.40;0.40;;;;;;;;;;5025942;28;20254;-64
2021/12/25 07:50:58;;;;;;;0.40;0.40;;;;;;;;;;5026130;28;20484;-65
2021/12/25 07:53:24;;;;;;;0.30;0.30;;;;;;;;;;5026133;28;20533;-65
2021/12/25 07:55:50;;;;;;;0.40;0.40;;;;;;;;;;5025739;28;20510;-66
2021/12/25 07:58:20;;;;;;;0.40;0.40;;;;;;;;;;5026141;28;20249;-65
2021/12/25 08:00:48;;;;;;;0.30;0.30;;;;;;;;;;5026030;28;20231;-65
2021/12/25 08:03:15;;;;;;;0.40;0.40;;;;;;;;;;5025976;28;20205;-65
2021/12/25 08:05:42;;;;;;;0.30;0.30;;;;;;;;;;5026023;28;20211;-65
2021/12/25 08:08:10;;;;;;;0.40;0.40;;;;;;;;;;5025856;28;20246;-65
2021/12/25 08:10:36;;;;;;;0.40;0.40;;;;;;;;;;5025391;28;20210;-68
2021/12/25 08:13:03;;;;;;;0.30;0.30;;;;;;;;;;5025474;28;20280;-65
2021/12/25 08:15:30;;;;;;;0.30;0.30;;;;;;;;;;5025796;28;20266;-65
2021/12/25 08:18:00;;;;;;;0.40;0.40;;;;;;;;;;5025734;28;20284;-65
2021/12/25 08:20:27;;;;;;;0.40;0.40;;;;;;;;;;5025697;28;20200;-65
2021/12/25 08:22:55;;;;;;;0.40;0.40;;;;;;;;;;5025497;28;20245;-66
2021/12/25 08:25:21;;;;;;;0.40;0.40;;;;;;;;;;5025338;28;20239;-66
2021/12/25 08:27:48;;;;;;;0.40;0.40;;;;;;;;;;5035925;28;20425;-65
2021/12/25 08:30:15;;;;;;;0.40;0.40;;;;;;;;;;5044964;28;20207;-66
2021/12/25 08:32:42;;;;;;;0.40;0.40;;;;;;;;;;5045156;28;20515;-66
2021/12/25 08:35:11;;;;;;;0.40;0.40;;;;;;;;;;5044865;28;20530;-65
2021/12/25 08:37:37;;;;;;;0.30;0.30;;;;;;;;;;5035842;28;20388;-65
2021/12/25 08:40:04;;;;;;;0.30;0.30;;;;;;;;;;5019463;28;20229;-64
2021/12/25 08:42:30;;;;;;;0.40;0.40;;;;;;;;;;5014537;28;20451;-66
2021/12/25 08:45:06;;;;;;;0.30;0.30;;;;;;;;;;5019437;28;20265;-66
2021/12/25 08:47:33;;;;;;;0.30;0.30;;;;;;;;;;5013262;28;20204;-64
2021/12/25 08:49:59;;;;;;;0.40;0.40;;;;;;;;;;5021170;28;20519;-65
2021/12/25 08:52:27;;;;;;;0.40;0.40;;;;;;;;;;5011968;28;20199;-66
2021/12/25 08:54:53;;;;;;;0.30;0.30;;;;;;;;;;5008214;28;20205;-65
2021/12/25 08:57:20;;;;;;;0.40;0.40;;;;;;;;;;5013137;28;20210;-65
2021/12/25 08:59:47;;;;;;;0.37;0.37;;;;;;;;;;5013702;28;20227;-66
2021/12/25 09:02:16;;;;;;;0.40;0.40;;;;;;;;;;5017824;28;20228;-65
2021/12/25 09:04:43;;;;;;;0.30;0.30;;;;;;;;;;5019307;28;20270;-65
2021/12/25 09:07:09;;;;;;;0.30;0.30;;;;;;;;;;5012680;28;20202;-63
2021/12/25 09:09:37;;;;;;;0.30;0.30;;;;;;;;;;5013926;28;20482;-65
2021/12/25 09:12:04;;;;;;;0.30;0.30;;;;;;;;;;5014722;28;20209;-65
2021/12/25 09:14:31;;;;;;;0.30;0.30;;;;;;;;;;5018780;28;20202;-65
2021/12/25 09:16:57;;;;;;;0.30;0.30;;;;;;;;;;5017326;28;20271;-65
2021/12/25 09:19:23;;;;;;;0.30;0.30;;;;;;;;;;5013830;28;20251;-66
2021/12/25 09:21:50;;;;;;;0.30;0.30;;;;;;;;;;5011021;28;20272;-66
2021/12/25 09:24:16;;;;;;;0.30;0.30;;;;;;;;;;5016121;28;20277;-66
2021/12/25 09:26:44;;;;;;;0.20;0.20;;;;;;;;;;5009452;28;20280;-66
2021/12/25 09:29:10;;;;;;;0.30;0.30;;;;;;;;;;5009684;28;20217;-65
2021/12/25 09:31:37;;;;;;;0.20;0.20;;;;;;;;;;5010124;28;20429;-66
2021/12/25 09:34:03;;;;;;;0.20;0.20;;;;;;;;;;5016014;28;20207;-66
2021/12/25 09:36:30;;;;;;;4.53;4.33;;;;;;;;;;5013921;28;20202;-66
2021/12/25 09:38:57;;;;;;;0.20;0.20;;;;;;;;;;5017563;28;20249;-65
2021/12/25 09:41:23;;;;;;;0.20;0.20;;;;;;;;;;5010780;28;20225;-67
2021/12/25 09:43:50;;;;;;;0.20;0.20;;;;;;;;;;5008506;28;20253;-66
2021/12/25 09:46:17;;;;;;;0.20;0.20;;;;;;;;;;5007041;28;20210;-65
2021/12/25 09:48:44;;;;;;;0.50;0.50;;;;;;;;;;5007657;28;20217;-66
2021/12/25 09:51:10;;;;;;;0.20;0.20;;;;;;;;;;5015103;28;20230;-66
2021/12/25 09:53:36;;;;;;;0.30;0.30;;;;;;;;;;5013825;28;20213;-67
2021/12/25 09:56:03;;;;;;;0.20;0.20;;;;;;;;;;5005589;28;20216;-66
2021/12/25 09:58:29;;;;;;;0.20;0.20;;;;;;;;;;5010644;28;20202;-66
2021/12/25 10:00:58;;;;;;;0.20;0.20;;;;;;;;;;5012855;28;20215;-65
2021/12/25 10:03:24;;;;;;;0.20;0.20;;;;;;;;;;5004079;28;20245;-66
2021/12/25 10:05:51;;;;;;;0.20;0.20;;;;;;;;;;5003690;28;20202;-66
2021/12/25 10:08:19;;;;;;;0.20;0.20;;;;;;;;;;5004068;28;20207;-66
2021/12/25 10:10:46;;;;;;;0.20;0.20;;;;;;;;;;5003827;28;20221;-66
2021/12/25 10:13:19;;;;;;;0.20;0.20;;;;;;;;;;5005237;28;20216;-66
2021/12/25 10:15:45;;;;;;;0.20;0.20;;;;;;;;;;5015829;28;20208;-66
2021/12/25 10:18:13;;;;;;;0.20;0.20;;;;;;;;;;5018799;28;20383;-68
2021/12/25 10:20:40;;;;;;;0.20;0.20;;;;;;;;;;5020653;28;20211;-67
2021/12/25 10:23:09;;;;;;;0.17;0.17;;;;;;;;;;5003487;28;20260;-68
2021/12/25 10:25:42;;;;;;;0.10;0.10;;;;;;;;;;5003916;28;20206;-69
2021/12/25 10:28:09;;;;;;;0.20;0.20;;;;;;;;;;5012880;28;20212;-70
2021/12/25 10:30:48;;;;;;;0.10;0.10;;;;;;;;;;5017718;28;20255;-68
2021/12/25 10:33:26;;;;;;;0.10;0.10;;;;;;;;;;5023318;28;20201;-68
2021/12/25 10:35:52;;;;;;;0.20;0.20;;;;;;;;;;5022184;28;20396;-67
2021/12/25 10:38:21;;;;;;;0.10;0.10;;;;;;;;;;5018280;28;20205;-68
2021/12/25 10:40:48;;;;;;;0.13;0.13;;;;;;;;;;5006581;28;20207;-68
2021/12/25 10:43:20;;;;;;;0.10;0.10;;;;;;;;;;5003570;28;20449;-65
2021/12/25 10:45:58;;;;;;;0.10;0.10;;;;;;;;;;5003933;28;20198;-69
2021/12/25 10:48:28;;;;;;;0.10;0.10;;;;;;;;;;5003526;28;20230;-68
2021/12/25 10:50:54;;;;;;;0.20;0.20;;;;;;;;;;5008035;28;20316;-69
2021/12/25 10:53:25;;;;;;;0.20;0.20;;;;;;;;;;5012159;28;20205;-67
2021/12/25 10:55:52;;;;;;;0.10;0.10;;;;;;;;;;5023308;28;20205;-67
2021/12/25 10:58:19;;;;;;;0.10;0.10;;;;;;;;;;5016567;28;20205;-68
2021/12/25 11:00:49;;;;;;;0.10;0.10;;;;;;;;;;5003448;28;20216;-67
2021/12/25 11:03:15;;;;;;;0.10;0.10;;;;;;;;;;5010206;28;20229;-66
2021/12/25 11:05:45;;;;;;;0.10;0.10;;;;;;;;;;5004415;28;20233;-69
2021/12/25 11:08:13;;;;;;;0.20;0.20;;;;;;;;;;5010371;28;20246;-69
2021/12/25 11:10:42;;;;;;;0.20;0.20;;;;;;;;;;5020131;28;20204;-69
2021/12/25 11:13:16;;;;;;;0.27;0.27;;;;;;;;;;5012915;28;20398;-70
2021/12/25 11:15:42;;;;;;;0.10;0.10;;;;;;;;;;5012200;28;20270;-68
2021/12/25 11:18:09;;;;;;;0.10;0.10;;;;;;;;;;5012667;28;20208;-66
2021/12/25 11:20:37;;;;;;;0.20;0.20;;;;;;;;;;5022601;28;20210;-65
2021/12/25 11:23:08;;;;;;;0.10;0.10;;;;;;;;;;5022833;28;20274;-65
2021/12/25 11:25:35;;;;;;;0.20;0.20;;;;;;;;;;5020576;28;20196;-68
2021/12/25 11:28:02;;;;;;;0.63;0.63;;;;;;;;;;5007198;28;20213;-68
2021/12/25 11:30:31;;;;;;;0.10;0.10;;;;;;;;;;5016567;28;20208;-67
2021/12/25 11:32:57;;;;;;;0.20;0.20;;;;;;;;;;5002854;28;20204;-68
2021/12/25 11:35:24;;;;;;;0.20;0.20;;;;;;;;;;5009477;28;20247;-66
2021/12/25 11:37:50;;;;;;;0.20;0.20;;;;;;;;;;5006120;28;20204;-67
2021/12/25 11:40:19;;;;;;;0.10;0.10;;;;;;;;;;5016812;28;20210;-67
2021/12/25 11:42:47;;;;;;;0.20;0.20;;;;;;;;;;5019639;28;20229;-69
2021/12/25 11:45:15;;;;;;;0.20;0.20;;;;;;;;;;5022159;28;20245;-68
2021/12/25 11:47:42;;;;;;;0.20;0.20;;;;;;;;;;5020900;28;20323;-67
2021/12/25 11:50:10;;;;;;;0.20;0.20;;;;;;;;;;5011058;28;20314;-67
2021/12/25 11:52:42;;;;;;;0.20;0.20;;;;;;;;;;5021295;28;20245;-66
2021/12/25 11:55:24;;;;;;;0.13;0.13;;;;;;;;;;5020232;28;20460;-68
2021/12/25 11:58:00;;;;;;;0.20;0.20;;;;;;;;;;5014663;28;20257;-68
2021/12/25 12:00:37;;;;;;;0.20;0.20;;;;;;;;;;5015709;28;20229;-67
2021/12/25 12:03:04;;;;;;;0.20;0.20;;;;;;;;;;5012662;28;20607;-68
2021/12/25 12:05:32;;;;;;;0.20;0.20;;;;;;;;;;5005793;28;20210;-66
2021/12/25 12:07:59;;;;;;;0.20;0.20;;;;;;;;;;5013437;28;20429;-66
2021/12/25 12:10:40;;;;;;;0.20;0.20;;;;;;;;;;5016070;28;20241;-66
2021/12/25 12:13:16;;;;;;;0.20;0.20;;;;;;;;;;5024696;28;20201;-66
2021/12/25 12:15:47;;;;;;;0.20;0.20;;;;;;;;;;5025428;28;20193;-67
2021/12/25 12:18:33;;;;;;;0.20;0.20;;;;;;;;;;5024559;28;20205;-67
2021/12/25 12:21:05;;;;;;;0.20;0.20;;;;;;;;;;5025581;28;20216;-67
2021/12/25 12:23:40;;;;;;;0.20;0.20;;;;;;;;;;5025590;28;20395;-67
2021/12/25 12:26:09;;;;;;;0.20;0.20;;;;;;;;;;5025430;28;20434;-68
2021/12/25 12:28:48;;;;;;;0.20;0.20;;;;;;;;;;5025497;28;20408;-67
2021/12/25 12:31:32;;;;;;;0.20;0.20;;;;;;;;;;5025371;28;20201;-67
2021/12/25 12:33:58;;;;;;;0.20;0.20;;;;;;;;;;5012078;28;20562;-67
2021/12/25 12:36:26;;;;;;;0.30;0.30;;;;;;;;;;5025229;28;20357;-69
2021/12/25 12:38:56;;;;;;;0.20;0.20;;;;;;;;;;5025020;28;20209;-67
2021/12/25 12:41:26;;;;;;;0.20;0.20;;;;;;;;;;5025171;28;20216;-68
2021/12/25 12:43:55;;;;;;;0.30;0.30;;;;;;;;;;5025191;28;20435;-68
2021/12/25 12:46:22;;;;;;;0.23;0.23;;;;;;;;;;5025159;28;20229;-66
2021/12/25 12:49:04;;;;;;;0.30;0.30;;;;;;;;;;5024790;28;20248;-66
2021/12/25 12:51:31;;;;;;;0.20;0.20;;;;;;;;;;5024513;28;20300;-66
2021/12/25 12:53:57;;;;;;;0.30;0.30;;;;;;;;;;5024625;28;20221;-66
2021/12/25 12:56:24;;;;;;;0.30;0.30;;;;;;;;;;5024711;28;20205;-67
2021/12/25 12:58:51;;;;;;;0.30;0.30;;;;;;;;;;5023932;28;20209;-67
2021/12/25 13:01:19;;;;;;;0.20;0.20;;;;;;;;;;5024649;28;20206;-67
2021/12/25 13:03:46;;;;;;;0.30;0.30;;;;;;;;;;5030134;28;20221;-65
2021/12/25 13:06:14;;;;;;;0.30;0.30;;;;;;;;;;5044624;28;20251;-67
2021/12/25 13:08:43;;;;;;;0.20;0.20;;;;;;;;;;5026786;28;20493;-67
2021/12/25 13:11:14;;;;;;;0.27;0.27;;;;;;;;;;5024687;28;20511;-67
2021/12/25 13:13:50;;;;;;;0.20;0.20;;;;;;;;;;5024760;28;20189;-67
2021/12/25 13:16:17;;;;;;;0.20;0.20;;;;;;;;;;5024637;28;20203;-66
2021/12/25 13:18:46;;;;;;;0.23;0.23;;;;;;;;;;5024410;28;20209;-66
2021/12/25 13:21:14;;;;;;;0.30;0.30;;;;;;;;;;5024248;28;20232;-67
2021/12/25 13:23:48;;;;;;;0.30;0.30;;;;;;;;;;5024098;28;20225;-67
2021/12/25 13:26:15;;;;;;;0.30;0.30;;;;;;;;;;5024473;28;20201;-66
2021/12/25 13:28:42;;;;;;;0.30;0.30;;;;;;;;;;5024075;28;20212;-67
2021/12/25 13:31:10;;;;;;;0.20;0.20;;;;;;;;;;5024193;28;20212;-67
2021/12/25 13:33:42;;;;;;;0.20;0.20;;;;;;;;;;5024235;28;20201;-66
2021/12/25 13:36:11;;;;;;;0.30;0.30;;;;;;;;;;5024351;28;20193;-67
2021/12/25 13:38:48;;;;;;;0.23;0.23;;;;;;;;;;5024439;28;20206;-67
2021/12/25 13:41:15;;;;;;;0.20;0.20;;;;;;;;;;5024227;28;20267;-67
2021/12/25 13:43:41;;;;;;;0.30;0.30;;;;;;;;;;5023695;28;20247;-67
2021/12/25 13:46:07;;;;;;;0.30;0.30;;;;;;;;;;5024156;28;20206;-66
2021/12/25 13:48:37;;;;;;;0.30;0.30;;;;;;;;;;5024033;28;20304;-66
2021/12/25 13:51:04;;;;;;;0.20;0.20;;;;;;;;;;5023954;28;20285;-66
2021/12/25 13:53:32;;;;;;;0.20;0.20;;;;;;;;;;5023657;28;20201;-67
2021/12/25 13:56:06;;;;;;;0.20;0.20;;;;;;;;;;5023983;28;20239;-68
2021/12/25 13:58:32;;;;;;;0.20;0.20;;;;;;;;;;5010719;28;20215;-67
2021/12/25 14:00:58;;;;;;;0.30;0.30;;;;;;;;;;5004217;28;20425;-66
2021/12/25 14:03:26;;;;;;;0.30;0.30;;;;;;;;;;5003954;28;20222;-67
2021/12/25 14:05:53;;;;;;;0.20;0.20;;;;;;;;;;5003945;28;20248;-66
2021/12/25 14:08:20;;;;;;;0.20;0.20;;;;;;;;;;5003794;28;20205;-66
2021/12/25 14:10:48;;;;;;;0.27;0.27;;;;;;;;;;5004046;28;20209;-67
2021/12/25 14:13:15;;;;;;;0.30;0.30;;;;;;;;;;5003734;28;20369;-67
2021/12/25 14:15:43;;;;;;;0.30;0.30;;;;;;;;;;5003973;28;20567;-67
2021/12/25 14:18:09;;;;;;;0.30;0.30;;;;;;;;;;5003959;28;20248;-66
2021/12/25 14:20:37;;;;;;;0.30;0.30;;;;;;;;;;5003936;28;20249;-66
2021/12/25 14:23:05;;;;;;;0.20;0.20;;;;;;;;;;5003834;28;20292;-66
2021/12/25 14:25:33;;;;;;;0.20;0.20;;;;;;;;;;5003522;28;20249;-66
2021/12/25 14:28:05;;;;;;;0.27;0.27;;;;;;;;;;5003516;28;20252;-64
2021/12/25 14:30:32;;;;;;;0.20;0.20;;;;;;;;;;5003816;28;20209;-66
2021/12/25 14:32:58;;;;;;;0.30;0.30;;;;;;;;;;5003711;28;20209;-66
2021/12/25 14:35:24;;;;;;;0.27;0.27;;;;;;;;;;5003564;28;20217;-65
2021/12/25 14:37:55;;;;;;;0.20;0.20;;;;;;;;;;5003765;28;20206;-66
2021/12/25 14:40:22;;;;;;;0.23;0.23;;;;;;;;;;5003753;28;20253;-66
2021/12/25 14:42:49;;;;;;;0.20;0.20;;;;;;;;;;5003689;28;20264;-66
2021/12/25 14:45:18;;;;;;;0.30;0.30;;;;;;;;;;5003232;28;20206;-66
2021/12/25 14:47:48;;;;;;;0.30;0.30;;;;;;;;;;5011159;28;20203;-67
2021/12/25 14:50:15;;;;;;;0.30;0.30;;;;;;;;;;5022973;28;20552;-66
2021/12/25 14:52:41;;;;;;;0.30;0.30;;;;;;;;;;5023336;28;20190;-66
2021/12/25 14:55:12;;;;;;;0.30;0.30;;;;;;;;;;5022954;28;20254;-67
2021/12/25 14:57:39;;;;;;;0.30;0.30;;;;;;;;;;5023246;28;20205;-67
2021/12/25 15:00:05;;;;;;;0.20;0.20;;;;;;;;;;5023148;28;20205;-67
2021/12/25 15:02:33;;;;;;;0.30;0.30;;;;;;;;;;5022699;28;20205;-66
2021/12/25 15:04:59;;;;;;;0.20;0.20;;;;;;;;;;5023123;28;20227;-67
2021/12/25 15:07:26;;;;;;;0.30;0.30;;;;;;;;;;5022766;28;20500;-66
2021/12/25 15:09:53;;;;;;;0.20;0.20;;;;;;;;;;5022833;28;20205;-67
2021/12/25 15:12:21;;;;;;;0.30;0.30;;;;;;;;;;5023038;28;20243;-66
2021/12/25 15:14:48;;;;;;;0.30;0.30;;;;;;;;;;5023046;28;20567;-66
2021/12/25 15:17:17;;;;;;;0.30;0.30;;;;;;;;;;5034883;28;20208;-65
2021/12/25 15:19:46;;;;;;;0.30;0.30;;;;;;;;;;5042727;28;20209;-67
2021/12/25 15:22:14;;;;;;;0.30;0.30;;;;;;;;;;5045387;28;20208;-65
2021/12/25 15:24:48;;;;;;;0.20;0.20;;;;;;;;;;5046581;28;20585;-66
2021/12/25 15:27:21;;;;;;;0.30;0.30;;;;;;;;;;5032415;28;20239;-66
2021/12/25 15:29:50;;;;;;;0.30;0.30;;;;;;;;;;5026817;28;20216;-66
2021/12/25 15:32:17;;;;;;;0.30;0.30;;;;;;;;;;5026552;28;20213;-66
2021/12/25 15:34:50;;;;;;;0.30;0.30;;;;;;;;;;5026522;28;20519;-66
2021/12/25 15:37:17;;;;;;;0.30;0.30;;;;;;;;;;5026338;28;20312;-65
2021/12/25 15:39:43;;;;;;;0.30;0.30;;;;;;;;;;5026534;28;20205;-66